createdAt,value
2019-04-07T00:00:09.041Z,0.00
2019-04-07T00:01:09.100Z,0.00
2019-04-07T00:02:08.970Z,0.00
2019-04-07T00:03:08.821Z,0.00
2019-04-07T00:04:09.298Z,0.00
2019-04-07T00:05:11.908Z,0.00
2019-04-07T00:06:09.661Z,0.00
2019-04-07T00:07:09.284Z,0.00
2019-04-07T00:08:08.762Z,0.00
2019-04-07T00:09:08.783Z,0.00
2019-04-07T00:10:08.743Z,0.00
2019-04-07T00:11:08.734Z,0.00
2019-04-07T00:12:09.324Z,0.00
2019-04-07T00:13:08.769Z,0.00
2019-04-07T00:14:08.696Z,0.00
2019-04-07T00:15:08.853Z,0.00
2019-04-07T00:16:08.681Z,0.00
2019-04-07T00:17:08.671Z,0.00
2019-04-07T00:18:08.669Z,0.00
2019-04-07T00:19:08.717Z,0.00
2019-04-07T00:20:08.860Z,0.00
2019-04-07T00:21:08.641Z,0.00
2019-04-07T00:22:09.153Z,0.00
2019-04-07T00:23:08.607Z,0.00
2019-04-07T00:24:09.179Z,0.00
2019-04-07T00:25:08.591Z,0.00
2019-04-07T00:26:08.565Z,0.00
2019-04-07T00:27:08.617Z,0.00
2019-04-07T00:28:08.572Z,0.00
2019-04-07T00:29:08.752Z,0.00
2019-04-07T00:30:09.395Z,0.00
2019-04-07T00:32:17.330Z,0.00
2019-04-07T00:33:18.143Z,0.00
2019-04-07T00:34:17.467Z,0.00
2019-04-07T00:35:26.712Z,0.00
2019-04-07T00:36:18.975Z,0.00
2019-04-07T00:37:17.498Z,0.00
2019-04-07T00:38:17.984Z,0.00
2019-04-07T00:39:17.184Z,0.00
2019-04-07T00:41:31.226Z,0.00
2019-04-07T00:42:27.373Z,0.00
2019-04-07T00:43:26.399Z,0.00
2019-04-07T00:44:25.889Z,0.00
2019-04-07T00:46:01.632Z,0.00
2019-04-07T00:46:25.864Z,0.00
2019-04-07T00:47:26.037Z,0.00
2019-04-07T00:48:26.013Z,0.00
2019-04-07T00:49:25.858Z,0.00
2019-04-07T00:51:34.573Z,0.00
2019-04-07T00:52:34.922Z,0.00
2019-04-07T00:53:35.315Z,0.00
2019-04-07T00:54:34.519Z,0.00
2019-04-07T00:55:35.278Z,0.00
2019-04-07T00:56:34.635Z,0.00
2019-04-07T00:57:34.475Z,0.00
2019-04-07T00:58:34.469Z,0.00
2019-04-07T00:59:37.831Z,0.00
2019-04-07T01:00:34.621Z,0.00
2019-04-07T01:01:35.027Z,0.00
2019-04-07T01:02:34.422Z,0.00
2019-04-07T01:03:34.914Z,0.00
2019-04-07T01:04:41.890Z,0.00
2019-04-07T01:05:38.470Z,0.00
2019-04-07T01:06:35.394Z,0.00
2019-04-07T01:07:37.260Z,0.00
2019-04-07T01:08:34.373Z,0.00
2019-04-07T01:09:35.316Z,0.00
2019-04-07T01:10:43.439Z,0.00
2019-04-07T01:11:35.421Z,0.00
2019-04-07T01:12:34.660Z,0.00
2019-04-07T01:13:34.321Z,0.00
2019-04-07T01:14:51.014Z,0.00
2019-04-07T01:15:41.720Z,0.00
2019-04-07T01:16:34.348Z,0.00
2019-04-07T01:17:34.494Z,0.00
2019-04-07T01:18:35.497Z,0.00
2019-04-07T01:20:43.091Z,0.00
2019-04-07T01:21:43.585Z,0.00
2019-04-07T01:22:42.955Z,0.00
2019-04-07T01:23:43.574Z,0.00
2019-04-07T01:25:04.026Z,0.00
2019-04-07T01:25:42.934Z,0.00
2019-04-07T01:26:43.694Z,0.00
2019-04-07T01:27:43.229Z,0.00
2019-04-07T01:28:43.012Z,0.00
2019-04-07T01:29:42.943Z,0.00
2019-04-07T01:30:42.905Z,0.00
2019-04-07T01:31:43.071Z,0.00
2019-04-07T01:32:42.898Z,0.00
2019-04-07T01:34:54.772Z,0.00
2019-04-07T01:35:48.056Z,0.00
2019-04-07T01:36:44.740Z,0.00
2019-04-07T01:37:42.941Z,0.00
2019-04-07T01:39:52.668Z,0.00
2019-04-07T01:40:58.576Z,0.00
2019-04-07T01:41:51.496Z,0.00
2019-04-07T01:42:52.170Z,0.00
2019-04-07T01:45:00.303Z,0.00
2019-04-07T01:46:01.032Z,0.00
2019-04-07T01:47:00.238Z,0.00
2019-04-07T01:49:10.144Z,0.00
2019-04-07T01:50:09.676Z,0.00
2019-04-07T01:51:09.117Z,0.00
2019-04-07T01:52:09.014Z,0.00
2019-04-07T01:54:17.764Z,0.00
2019-04-07T01:55:18.078Z,0.00
2019-04-07T01:56:18.275Z,0.00
2019-04-07T01:57:18.378Z,0.00
2019-04-07T01:58:17.675Z,0.00
2019-04-07T01:59:18.441Z,0.00
2019-04-07T02:00:18.341Z,0.00
2019-04-07T02:01:18.208Z,0.00
2019-04-07T02:03:39.928Z,0.00
2019-04-07T02:04:39.968Z,0.00
2019-04-07T02:05:39.876Z,0.00
2019-04-07T02:06:39.940Z,0.00
2019-04-07T02:07:46.643Z,0.00
2019-04-07T02:08:40.245Z,0.00
2019-04-07T02:09:40.222Z,0.00
2019-04-07T02:10:40.679Z,0.00
2019-04-07T02:11:39.823Z,0.00
2019-04-07T02:12:40.132Z,0.00
2019-04-07T02:13:40.438Z,0.00
2019-04-07T02:14:39.775Z,0.00
2019-04-07T02:15:40.682Z,0.00
2019-04-07T02:16:47.170Z,0.00
2019-04-07T02:18:48.512Z,0.00
2019-04-07T02:19:49.088Z,0.00
2019-04-07T02:22:00.354Z,0.00
2019-04-07T02:24:09.079Z,0.00
2019-04-07T02:25:09.754Z,0.00
2019-04-07T02:26:08.615Z,0.00
2019-04-07T02:28:17.658Z,0.00
2019-04-07T02:29:17.208Z,0.00
2019-04-07T02:30:26.056Z,0.00
2019-04-07T02:31:17.268Z,0.00
2019-04-07T02:32:31.508Z,0.00
2019-04-07T02:33:18.123Z,0.00
2019-04-07T02:34:24.196Z,0.00
2019-04-07T02:35:17.156Z,0.00
2019-04-07T02:36:25.741Z,0.00
2019-04-07T02:37:56.891Z,0.00
2019-04-07T02:38:17.886Z,0.00
2019-04-07T02:39:18.081Z,0.00
2019-04-07T02:40:17.855Z,0.00
2019-04-07T02:41:17.994Z,0.00
2019-04-07T02:43:17.875Z,0.00
2019-04-07T02:44:17.947Z,0.00
2019-04-07T02:45:17.248Z,0.00
2019-04-07T02:46:17.204Z,0.00
2019-04-07T02:47:24.483Z,0.00
2019-04-07T02:48:25.183Z,0.00
2019-04-07T02:50:31.298Z,0.00
2019-04-07T02:52:40.103Z,0.00
2019-04-07T02:53:41.098Z,0.00
2019-04-07T02:54:49.681Z,0.00
2019-04-07T02:55:48.480Z,0.00
2019-04-07T02:57:56.224Z,0.00
2019-04-07T02:59:03.272Z,0.00
2019-04-07T03:00:04.482Z,0.00
2019-04-07T03:00:56.231Z,0.00
2019-04-07T03:02:58.003Z,0.00
2019-04-07T03:04:05.865Z,0.00
2019-04-07T03:04:59.941Z,0.00
2019-04-07T03:06:03.604Z,0.00
2019-04-07T03:06:56.838Z,0.00
2019-04-07T03:08:03.833Z,0.00
2019-04-07T03:08:57.003Z,0.00
2019-04-07T03:11:12.621Z,0.00
2019-04-07T03:12:19.168Z,0.00
2019-04-07T03:13:12.730Z,0.00
2019-04-07T03:14:19.842Z,0.00
2019-04-07T03:15:11.833Z,0.00
2019-04-07T03:16:19.401Z,0.00
2019-04-07T03:17:11.894Z,0.00
2019-04-07T03:18:11.936Z,0.00
2019-04-07T03:19:11.794Z,0.00
2019-04-07T03:20:12.023Z,0.00
2019-04-07T03:22:20.753Z,0.00
2019-04-07T03:23:20.498Z,0.00
2019-04-07T03:24:21.317Z,0.00
2019-04-07T03:25:20.709Z,0.00
2019-04-07T03:26:27.505Z,0.00
2019-04-07T03:27:20.560Z,0.00
2019-04-07T03:28:20.430Z,0.00
2019-04-07T03:29:20.422Z,0.00
2019-04-07T03:31:32.162Z,0.00
2019-04-07T03:32:31.153Z,0.00
2019-04-07T03:33:43.507Z,0.00
2019-04-07T03:34:32.892Z,0.00
2019-04-07T03:35:40.298Z,0.00
2019-04-07T03:36:32.294Z,0.00
2019-04-07T03:37:39.068Z,0.00
2019-04-07T03:38:30.097Z,0.00
2019-04-07T03:39:30.231Z,0.00
2019-04-07T03:41:40.044Z,0.00
2019-04-07T03:42:39.822Z,0.00
2019-04-07T03:43:40.199Z,0.00
2019-04-07T03:44:41.016Z,0.00
2019-04-07T03:45:39.848Z,0.00
2019-04-07T03:46:42.916Z,0.00
2019-04-07T03:47:41.736Z,0.00
2019-04-07T03:48:49.787Z,0.00
2019-04-07T03:49:39.786Z,0.00
2019-04-07T03:50:40.808Z,0.00
2019-04-07T03:51:40.505Z,0.00
2019-04-07T03:52:40.470Z,0.00
2019-04-07T03:53:48.816Z,0.00
2019-04-07T03:54:46.742Z,0.00
2019-04-07T03:55:40.940Z,0.00
2019-04-07T03:56:43.384Z,0.00
2019-04-07T03:57:39.651Z,0.00
2019-04-07T03:58:41.652Z,0.00
2019-04-07T03:59:51.350Z,0.00
2019-04-07T04:00:47.639Z,0.00
2019-04-07T04:01:39.616Z,0.00
2019-04-07T04:02:46.728Z,0.00
2019-04-07T04:03:40.516Z,0.00
2019-04-07T04:04:46.656Z,0.00
2019-04-07T04:05:39.568Z,0.00
2019-04-07T04:06:39.548Z,0.00
2019-04-07T04:07:40.274Z,0.00
2019-04-07T04:08:49.329Z,0.00
2019-04-07T04:09:42.680Z,0.00
2019-04-07T04:10:40.739Z,0.00
2019-04-07T04:11:39.767Z,0.00
2019-04-07T04:12:40.290Z,0.00
2019-04-07T04:13:51.021Z,0.00
2019-04-07T04:14:39.807Z,0.00
2019-04-07T04:15:46.864Z,0.00
2019-04-07T04:16:40.269Z,0.00
2019-04-07T04:17:39.446Z,0.00
2019-04-07T04:18:39.460Z,4.00
2019-04-07T04:19:40.784Z,4.00
2019-04-07T04:20:40.784Z,0.00
2019-04-07T04:21:42.246Z,4.00
2019-04-07T04:22:39.764Z,4.00
2019-04-07T04:23:42.715Z,4.00
2019-04-07T04:24:53.469Z,8.00
2019-04-07T04:25:40.722Z,4.00
2019-04-07T04:26:39.402Z,8.00
2019-04-07T04:27:39.643Z,12.00
2019-04-07T04:28:39.321Z,16.00
2019-04-07T04:29:39.418Z,16.00
2019-04-07T04:30:39.748Z,20.00
2019-04-07T04:31:40.193Z,24.00
2019-04-07T04:32:39.905Z,28.00
2019-04-07T04:33:39.660Z,36.00
2019-04-07T04:34:46.676Z,40.00
2019-04-07T04:35:42.719Z,52.00
2019-04-07T04:36:40.482Z,64.00
2019-04-07T04:37:50.213Z,72.00
2019-04-07T04:38:40.541Z,88.00
2019-04-07T04:39:40.899Z,100.00
2019-04-07T04:40:39.529Z,116.00
2019-04-07T04:41:39.174Z,136.00
2019-04-07T04:42:39.160Z,152.00
2019-04-07T04:43:40.411Z,176.00
2019-04-07T04:44:40.287Z,204.00
2019-04-07T04:45:48.940Z,228.00
2019-04-07T04:46:39.290Z,256.00
2019-04-07T04:47:41.052Z,292.00
2019-04-07T04:48:39.104Z,328.00
2019-04-07T04:49:39.082Z,364.00
2019-04-07T04:50:39.120Z,404.00
2019-04-07T04:51:40.548Z,456.00
2019-04-07T04:54:35.376Z,688.00
2019-04-07T04:55:35.079Z,756.00
2019-04-07T04:56:36.149Z,808.00
2019-04-07T04:57:47.983Z,864.00
2019-04-07T05:00:32.140Z,1052.00
2019-04-07T05:01:31.022Z,1120.00
2019-04-07T05:02:31.635Z,1184.00
2019-04-07T05:03:30.486Z,1232.00
2019-04-07T05:04:34.026Z,1272.00
2019-04-07T05:05:30.553Z,1324.00
2019-04-07T05:06:31.238Z,1396.00
2019-04-07T05:07:30.359Z,1472.00
2019-04-07T05:08:32.400Z,1540.00
2019-04-07T05:09:46.503Z,1596.00
2019-04-07T05:11:40.783Z,1668.00
2019-04-07T05:13:29.831Z,1812.00
2019-04-07T05:15:43.705Z,2060.00
2019-04-07T05:18:00.409Z,2420.00
2019-04-07T05:19:16.335Z,2612.00
2019-04-07T05:20:17.381Z,2824.00
2019-04-07T05:21:05.858Z,3040.00
2019-04-07T05:21:59.142Z,3228.00
2019-04-07T05:23:05.503Z,3372.00
2019-04-07T05:23:58.438Z,3544.00
2019-04-07T05:24:58.416Z,3728.00
2019-04-07T05:25:59.091Z,3920.00
2019-04-07T05:27:06.423Z,4104.00
2019-04-07T05:27:58.613Z,4264.00
2019-04-07T05:29:08.148Z,4424.00
2019-04-07T05:30:05.441Z,4588.00
2019-04-07T05:30:59.093Z,4744.00
2019-04-07T05:31:58.338Z,4912.00
2019-04-07T05:33:05.607Z,5104.00
2019-04-07T05:33:58.632Z,5304.00
2019-04-07T05:37:01.276Z,6028.00
2019-04-07T05:38:08.294Z,6340.00
2019-04-07T05:39:00.968Z,6696.00
2019-04-07T05:40:07.535Z,7104.00
2019-04-07T05:42:10.827Z,8044.00
2019-04-07T05:45:06.513Z,10320.00
2019-04-07T05:46:13.905Z,10284.00
2019-04-07T05:47:21.292Z,10024.00
2019-04-07T05:48:17.453Z,10036.00
2019-04-07T05:49:06.770Z,9980.00
2019-04-07T05:50:26.791Z,9764.00
2019-04-07T05:51:07.240Z,9432.00
2019-04-07T05:54:02.463Z,9520.00
2019-04-07T05:55:02.604Z,10028.00
2019-04-07T05:56:09.469Z,10488.00
2019-04-07T05:57:08.699Z,11084.00
2019-04-07T05:58:05.011Z,11600.00
2019-04-07T05:59:02.802Z,13172.00
2019-04-07T06:00:01.652Z,13408.00
2019-04-07T06:01:08.489Z,11636.00
2019-04-07T06:02:08.981Z,11180.00
2019-04-07T06:03:06.581Z,10976.00
2019-04-07T06:04:02.688Z,10848.00
2019-04-07T06:05:01.594Z,11092.00
2019-04-07T06:06:01.551Z,12956.00
2019-04-07T06:07:01.555Z,12588.00
2019-04-07T06:08:18.833Z,11960.00
2019-04-07T06:09:03.027Z,12416.00
2019-04-07T06:10:02.291Z,13460.00
2019-04-07T06:11:02.392Z,15936.00
2019-04-07T06:12:05.934Z,13756.00
2019-04-07T06:13:03.077Z,13144.00
2019-04-07T06:14:01.876Z,13648.00
2019-04-07T06:15:01.908Z,13952.00
2019-04-07T06:16:02.012Z,14228.00
2019-04-07T06:17:02.094Z,14440.00
2019-04-07T06:18:02.401Z,14800.00
2019-04-07T06:19:06.460Z,15068.00
2019-04-07T06:20:02.697Z,15700.00
2019-04-07T06:21:01.393Z,16928.00
2019-04-07T06:22:04.634Z,17408.00
2019-04-07T06:23:02.038Z,16928.00
2019-04-07T06:24:01.363Z,18592.00
2019-04-07T06:25:11.192Z,19296.00
2019-04-07T06:26:01.374Z,18656.00
2019-04-07T06:27:08.805Z,14876.00
2019-04-07T06:28:01.329Z,14952.00
2019-04-07T06:29:01.600Z,15160.00
2019-04-07T06:30:02.302Z,15380.00
2019-04-07T06:31:02.045Z,15560.00
2019-04-07T06:32:04.527Z,16148.00
2019-04-07T06:33:01.709Z,16484.00
2019-04-07T06:34:01.259Z,17600.00
2019-04-07T06:35:01.801Z,18976.00
2019-04-07T06:36:01.245Z,19616.00
2019-04-07T06:37:01.237Z,19872.00
2019-04-07T06:38:08.950Z,18368.00
2019-04-07T06:39:01.430Z,17888.00
2019-04-07T06:42:54.559Z,16152.00
2019-04-07T06:44:07.613Z,15488.00
2019-04-07T06:44:55.472Z,14620.00
2019-04-07T06:45:55.017Z,13856.00
2019-04-07T06:46:58.588Z,13544.00
2019-04-07T06:47:56.206Z,12912.00
2019-04-07T06:48:55.099Z,12492.00
2019-04-07T06:49:55.216Z,12584.00
2019-04-07T06:51:01.714Z,12716.00
2019-04-07T06:51:54.534Z,12936.00
2019-04-07T06:52:54.338Z,13188.00
2019-04-07T06:53:54.389Z,13360.00
2019-04-07T06:54:56.229Z,13492.00
2019-04-07T06:55:59.117Z,13676.00
2019-04-07T06:56:55.520Z,13916.00
2019-04-07T06:57:54.317Z,14056.00
2019-04-07T06:59:55.623Z,13908.00
2019-04-07T07:00:55.945Z,13832.00
2019-04-07T07:01:58.712Z,13828.00
2019-04-07T07:02:54.401Z,13852.00
2019-04-07T07:04:08.619Z,13952.00
2019-04-07T07:04:56.236Z,14076.00
2019-04-07T07:05:54.195Z,14240.00
2019-04-07T07:06:54.177Z,14436.00
2019-04-07T07:07:54.795Z,14672.00
2019-04-07T07:08:56.628Z,14952.00
2019-04-07T07:09:54.819Z,15236.00
2019-04-07T07:10:54.224Z,15480.00
2019-04-07T07:11:54.122Z,15692.00
2019-04-07T07:12:59.659Z,15840.00
2019-04-07T07:13:55.154Z,16028.00
2019-04-07T07:14:54.107Z,16452.00
2019-04-07T07:15:54.145Z,16764.00
2019-04-07T07:16:54.459Z,16760.00
2019-04-07T07:17:57.136Z,17260.00
2019-04-07T07:18:55.733Z,17824.00
2019-04-07T07:19:56.584Z,18464.00
2019-04-07T07:20:54.040Z,19360.00
2019-04-07T07:21:54.024Z,20576.00
2019-04-07T07:22:54.000Z,22112.00
2019-04-07T07:23:54.022Z,24032.00
2019-04-07T07:24:57.997Z,26048.00
2019-04-07T07:25:55.506Z,27456.00
2019-04-07T07:26:54.881Z,28832.00
2019-04-07T07:27:53.950Z,30144.00
2019-04-07T07:28:54.304Z,33344.00
2019-04-07T07:29:55.332Z,35808.00
2019-04-07T07:30:54.617Z,36448.00
2019-04-07T07:31:59.771Z,41760.00
2019-04-07T07:32:55.270Z,46560.00
2019-04-07T07:33:54.082Z,42720.00
2019-04-07T07:34:55.283Z,41888.00
2019-04-07T07:35:53.860Z,35328.00
2019-04-07T07:36:56.613Z,31936.00
2019-04-07T07:37:57.590Z,28160.00
2019-04-07T07:39:00.551Z,26176.00
2019-04-07T07:39:55.380Z,25312.00
2019-04-07T07:40:54.675Z,25536.00
2019-04-07T07:41:54.062Z,26304.00
2019-04-07T07:43:00.793Z,26816.00
2019-04-07T07:44:03.601Z,27872.00
2019-04-07T07:44:53.796Z,28992.00
2019-04-07T07:45:55.552Z,31136.00
2019-04-07T07:46:53.834Z,35200.00
2019-04-07T07:48:02.088Z,36064.00
2019-04-07T07:48:57.021Z,37152.00
2019-04-07T07:50:04.926Z,32800.00
2019-04-07T07:50:53.793Z,29568.00
2019-04-07T07:51:53.688Z,26816.00
2019-04-07T07:52:54.751Z,24448.00
2019-04-07T07:53:56.611Z,21888.00
2019-04-07T07:54:55.206Z,19680.00
2019-04-07T07:55:53.677Z,18368.00
2019-04-07T07:56:53.635Z,17616.00
2019-04-07T07:59:03.304Z,18368.00
2019-04-07T08:00:17.157Z,19264.00
2019-04-07T08:01:17.755Z,20448.00
2019-04-07T08:02:14.626Z,21888.00
2019-04-07T08:03:13.929Z,23488.00
2019-04-07T08:04:16.182Z,25568.00
2019-04-07T08:09:07.453Z,39872.00
2019-04-07T08:10:03.178Z,39136.00
2019-04-07T08:11:02.823Z,38400.00
2019-04-07T08:12:03.448Z,37664.00
2019-04-07T08:13:05.156Z,36640.00
2019-04-07T08:14:06.882Z,35264.00
2019-04-07T08:15:04.913Z,34240.00
2019-04-07T08:17:18.460Z,31776.00
2019-04-07T08:20:11.380Z,33280.00
2019-04-07T08:21:28.067Z,29984.00
2019-04-07T08:22:09.297Z,28448.00
2019-04-07T08:23:11.812Z,26976.00
2019-04-07T08:24:10.117Z,26080.00
2019-04-07T08:25:09.729Z,25408.00
2019-04-07T08:27:17.977Z,25120.00
2019-04-07T08:28:19.745Z,24608.00
2019-04-07T08:29:17.933Z,23648.00
2019-04-07T08:30:18.417Z,22880.00
2019-04-07T08:31:21.461Z,22368.00
2019-04-07T08:32:18.670Z,22016.00
2019-04-07T08:33:17.960Z,21728.00
2019-04-07T08:34:17.888Z,21408.00
2019-04-07T08:35:18.629Z,20960.00
2019-04-07T08:37:26.605Z,20032.00
2019-04-07T08:38:27.983Z,20160.00
2019-04-07T08:39:31.578Z,20960.00
2019-04-07T08:40:49.825Z,22016.00
2019-04-07T08:41:26.740Z,23008.00
2019-04-07T08:42:26.989Z,24000.00
2019-04-07T08:43:26.585Z,25248.00
2019-04-07T08:44:29.303Z,26752.00
2019-04-07T08:46:40.926Z,30112.00
2019-04-07T08:47:38.008Z,31904.00
2019-04-07T08:48:36.184Z,34112.00
2019-04-07T08:49:36.530Z,36064.00
2019-04-07T08:51:01.033Z,37920.00
2019-04-07T08:51:36.196Z,39840.00
2019-04-07T08:52:38.445Z,41760.00
2019-04-07T08:53:37.716Z,43552.00
2019-04-07T08:54:36.806Z,44448.00
2019-04-07T08:55:47.779Z,44704.00
2019-04-07T08:56:37.615Z,44896.00
2019-04-07T08:57:36.879Z,63328.00
2019-04-07T08:58:38.674Z,64640.00
2019-04-07T08:59:42.425Z,60192.00
2019-04-07T09:00:37.247Z,54912.00
2019-04-07T09:01:43.484Z,54400.00
2019-04-07T09:02:36.097Z,55872.00
2019-04-07T09:03:45.404Z,49152.00
2019-04-07T09:04:47.315Z,47744.00
2019-04-07T09:05:44.489Z,52160.00
2019-04-07T09:06:35.991Z,71744.00
2019-04-07T09:07:50.684Z,93408.00
2019-04-07T09:08:37.940Z,44256.00
2019-04-07T09:09:40.120Z,40512.00
2019-04-07T09:10:37.148Z,38112.00
2019-04-07T09:11:44.786Z,39232.00
2019-04-07T09:12:36.096Z,45312.00
2019-04-07T09:13:36.321Z,60224.00
2019-04-07T09:15:36.023Z,50080.00
2019-04-07T09:16:35.935Z,120384.00
2019-04-07T09:17:46.026Z,122880.00
2019-04-07T09:18:37.348Z,39296.00
2019-04-07T09:19:44.207Z,29632.00
2019-04-07T09:20:36.148Z,28960.00
2019-04-07T09:21:41.381Z,29728.00
2019-04-07T09:22:36.378Z,31264.00
2019-04-07T09:23:35.855Z,33792.00
2019-04-07T09:24:37.070Z,36064.00
2019-04-07T09:25:39.013Z,36928.00
2019-04-07T09:26:40.566Z,37152.00
2019-04-07T09:27:37.440Z,37600.00
2019-04-07T09:28:35.774Z,37504.00
2019-04-07T09:29:36.387Z,37792.00
2019-04-07T09:30:35.719Z,38752.00
2019-04-07T09:31:36.408Z,40160.00
2019-04-07T09:32:35.809Z,40800.00
2019-04-07T09:33:37.628Z,41216.00
2019-04-07T09:34:35.679Z,43008.00
2019-04-07T09:35:36.231Z,44160.00
2019-04-07T09:36:36.327Z,45120.00
2019-04-07T09:37:35.701Z,43872.00
2019-04-07T09:38:36.489Z,48864.00
2019-04-07T09:40:35.609Z,57312.00
2019-04-07T09:41:36.364Z,75296.00
2019-04-07T09:42:35.616Z,155712.00
2019-04-07T09:43:35.862Z,153248.00
2019-04-07T09:44:37.695Z,171552.00
2019-04-07T09:45:38.609Z,168576.00
2019-04-07T09:46:35.553Z,144032.00
2019-04-07T09:47:35.834Z,162944.00
2019-04-07T09:48:35.522Z,139584.00
2019-04-07T09:49:35.579Z,104736.00
2019-04-07T09:50:35.540Z,117216.00
2019-04-07T09:51:39.808Z,123232.00
2019-04-07T09:52:37.043Z,141184.00
2019-04-07T09:53:36.074Z,90816.00
2019-04-07T09:54:35.464Z,66784.00
2019-04-07T09:55:35.538Z,69600.00
2019-04-07T09:56:36.186Z,124928.00
2019-04-07T09:57:37.736Z,138912.00
2019-04-07T09:58:35.822Z,167712.00
2019-04-07T09:59:35.412Z,159104.00
2019-04-07T10:00:35.400Z,156224.00
2019-04-07T10:01:35.442Z,117792.00
2019-04-07T10:02:35.792Z,68224.00
2019-04-07T10:03:37.698Z,120288.00
2019-04-07T10:04:35.631Z,137216.00
2019-04-07T10:05:35.355Z,143488.00
2019-04-07T10:06:35.328Z,138240.00
2019-04-07T10:07:36.371Z,140128.00
2019-04-07T10:08:44.325Z,137952.00
2019-04-07T10:11:31.725Z,143744.00
2019-04-07T10:12:40.438Z,138176.00
2019-04-07T10:13:39.839Z,44064.00
2019-04-07T10:14:31.736Z,121760.00
2019-04-07T10:15:32.847Z,117344.00
2019-04-07T10:16:33.887Z,131232.00
2019-04-07T10:17:39.495Z,57216.00
2019-04-07T10:18:38.903Z,47200.00
2019-04-07T10:19:41.375Z,90880.00
2019-04-07T10:23:18.378Z,86912.00
2019-04-07T10:24:27.382Z,40320.00
2019-04-07T10:25:27.972Z,43488.00
2019-04-07T10:26:26.927Z,31552.00
2019-04-07T10:27:24.618Z,29664.00
2019-04-07T10:28:25.542Z,29440.00
2019-04-07T10:29:35.328Z,29600.00
2019-04-07T10:30:17.478Z,29248.00
2019-04-07T10:31:19.796Z,29824.00
2019-04-07T10:32:17.869Z,31328.00
2019-04-07T10:33:17.949Z,32864.00
2019-04-07T10:34:18.214Z,34336.00
2019-04-07T10:35:17.916Z,34528.00
2019-04-07T10:36:17.553Z,34720.00
2019-04-07T10:37:18.773Z,33152.00
2019-04-07T10:38:17.365Z,30336.00
2019-04-07T10:39:17.592Z,30208.00
2019-04-07T10:40:20.916Z,31648.00
2019-04-07T10:41:17.332Z,32864.00
2019-04-07T10:42:18.052Z,32064.00
2019-04-07T10:43:17.429Z,31648.00
2019-04-07T10:44:17.915Z,32128.00
2019-04-07T10:45:17.468Z,32832.00
2019-04-07T10:46:17.930Z,33984.00
2019-04-07T10:47:17.328Z,34208.00
2019-04-07T10:48:17.951Z,35424.00
2019-04-07T10:49:26.325Z,36544.00
2019-04-07T10:50:17.911Z,36576.00
2019-04-07T10:51:25.506Z,35808.00
2019-04-07T10:52:17.918Z,40576.00
2019-04-07T10:53:17.289Z,47488.00
2019-04-07T10:54:17.271Z,42016.00
2019-04-07T10:55:17.315Z,39648.00
2019-04-07T10:56:17.186Z,36192.00
2019-04-07T10:57:17.838Z,34816.00
2019-04-07T10:58:17.218Z,34752.00
2019-04-07T10:59:17.483Z,33792.00
2019-04-07T11:00:17.134Z,33536.00
2019-04-07T11:01:17.827Z,33248.00
2019-04-07T11:02:17.112Z,33568.00
2019-04-07T11:03:28.390Z,34464.00
2019-04-07T11:04:17.102Z,34912.00
2019-04-07T11:05:17.082Z,36608.00
2019-04-07T11:06:17.059Z,37696.00
2019-04-07T11:07:18.595Z,37952.00
2019-04-07T11:08:17.034Z,36832.00
2019-04-07T11:09:17.768Z,34752.00
2019-04-07T11:10:29.383Z,33056.00
2019-04-07T11:11:18.166Z,32160.00
2019-04-07T11:12:17.786Z,31776.00
2019-04-07T11:13:16.977Z,30688.00
2019-04-07T11:14:17.249Z,29632.00
2019-04-07T11:15:18.379Z,29536.00
2019-04-07T11:16:17.339Z,30016.00
2019-04-07T11:17:17.015Z,30592.00
2019-04-07T11:18:17.487Z,31488.00
2019-04-07T11:19:17.684Z,32128.00
2019-04-07T11:22:38.972Z,29984.00
2019-04-07T11:23:45.391Z,30304.00
2019-04-07T11:24:38.223Z,30688.00
2019-04-07T11:25:38.479Z,31584.00
2019-04-07T11:27:53.994Z,34592.00
2019-04-07T11:28:53.861Z,35776.00
2019-04-07T11:29:53.988Z,37312.00
2019-04-07T11:30:54.102Z,38208.00
2019-04-07T11:31:53.820Z,40000.00
2019-04-07T11:32:54.337Z,43104.00
2019-04-07T11:33:54.497Z,42880.00
2019-04-07T11:34:55.619Z,43200.00
2019-04-07T11:35:53.780Z,40832.00
2019-04-07T11:36:54.595Z,41408.00
2019-04-07T11:37:53.952Z,42592.00
2019-04-07T11:38:53.783Z,47584.00
2019-04-07T11:39:54.536Z,54144.00
2019-04-07T11:40:54.618Z,51072.00
2019-04-07T11:41:54.813Z,44960.00
2019-04-07T11:42:53.696Z,44768.00
2019-04-07T11:43:54.567Z,44960.00
2019-04-07T11:44:54.200Z,46112.00
2019-04-07T11:46:00.022Z,53664.00
2019-04-07T11:46:53.687Z,52864.00
2019-04-07T11:48:00.688Z,49056.00
2019-04-07T11:48:53.682Z,46144.00
2019-04-07T11:50:54.224Z,43808.00
2019-04-07T11:52:01.623Z,40288.00
2019-04-07T11:52:53.591Z,43136.00
2019-04-07T11:54:01.552Z,38176.00
2019-04-07T11:54:53.783Z,37760.00
2019-04-07T11:55:53.566Z,40416.00
2019-04-07T11:57:04.480Z,42784.00
2019-04-07T11:58:06.577Z,46560.00
2019-04-07T11:58:56.196Z,44704.00
2019-04-07T12:00:01.167Z,39616.00
2019-04-07T12:00:53.874Z,44192.00
2019-04-07T12:01:54.157Z,78784.00
2019-04-07T12:02:54.372Z,107296.00
2019-04-07T12:03:55.073Z,108448.00
2019-04-07T12:05:03.188Z,94432.00
2019-04-07T12:06:07.568Z,86816.00
2019-04-07T12:06:53.678Z,59296.00
2019-04-07T12:08:00.725Z,111680.00
2019-04-07T12:09:00.558Z,77984.00
2019-04-07T12:09:54.175Z,43552.00
2019-04-07T12:11:03.790Z,62976.00
2019-04-07T12:11:53.786Z,73504.00
2019-04-07T12:12:54.827Z,57056.00
2019-04-07T12:14:00.850Z,40288.00
2019-04-07T12:14:54.607Z,37248.00
2019-04-07T12:15:55.407Z,36992.00
2019-04-07T12:16:53.476Z,40672.00
2019-04-07T12:17:53.526Z,53472.00
2019-04-07T12:19:01.219Z,66400.00
2019-04-07T12:19:54.962Z,50432.00
2019-04-07T12:20:53.287Z,39552.00
2019-04-07T12:21:53.282Z,37440.00
2019-04-07T12:22:53.884Z,39104.00
2019-04-07T12:23:54.839Z,41280.00
2019-04-07T12:24:57.716Z,42048.00
2019-04-07T12:25:54.744Z,43296.00
2019-04-07T12:26:53.821Z,45344.00
2019-04-07T12:27:53.784Z,45024.00
2019-04-07T12:29:21.141Z,115200.00
2019-04-07T12:29:53.641Z,108064.00
2019-04-07T12:30:53.213Z,49440.00
2019-04-07T12:31:53.269Z,41632.00
2019-04-07T12:32:54.050Z,36928.00
2019-04-07T12:34:55.116Z,35584.00
2019-04-07T12:35:56.349Z,38400.00
2019-04-07T12:36:55.109Z,36960.00
2019-04-07T12:37:57.963Z,36352.00
2019-04-07T12:39:18.835Z,35648.00
2019-04-07T12:39:55.516Z,34912.00
2019-04-07T12:41:11.024Z,33344.00
2019-04-07T12:41:58.022Z,32288.00
2019-04-07T12:42:54.999Z,31968.00
2019-04-07T12:43:55.224Z,32704.00
2019-04-07T12:44:55.572Z,32384.00
2019-04-07T12:45:55.128Z,32000.00
2019-04-07T12:46:55.661Z,30912.00
2019-04-07T12:48:09.298Z,31040.00
2019-04-07T12:48:55.394Z,30720.00
2019-04-07T12:50:04.148Z,30272.00
2019-04-07T12:51:02.048Z,29280.00
2019-04-07T12:51:56.091Z,29664.00
2019-04-07T12:52:59.416Z,30464.00
2019-04-07T12:53:56.409Z,31072.00
2019-04-07T12:54:55.646Z,31136.00
2019-04-07T12:55:59.123Z,30976.00
2019-04-07T12:56:57.743Z,29920.00
2019-04-07T12:57:55.487Z,29856.00
2019-04-07T12:58:54.830Z,29408.00
2019-04-07T12:59:56.156Z,28480.00
2019-04-07T13:01:00.746Z,29248.00
2019-04-07T13:01:56.432Z,28768.00
2019-04-07T13:03:00.341Z,27328.00
2019-04-07T13:03:54.804Z,25792.00
2019-04-07T13:04:54.767Z,25120.00
2019-04-07T13:05:55.261Z,25472.00
2019-04-07T13:06:55.543Z,26400.00
2019-04-07T13:08:00.475Z,26496.00
2019-04-07T13:08:56.808Z,25600.00
2019-04-07T13:09:54.829Z,24416.00
2019-04-07T13:10:55.802Z,23392.00
2019-04-07T13:12:14.058Z,22944.00
2019-04-07T13:13:04.349Z,23040.00
2019-04-07T13:14:08.323Z,23520.00
2019-04-07T13:15:03.538Z,23776.00
2019-04-07T13:16:02.020Z,24128.00
2019-04-07T13:17:10.639Z,24448.00
2019-04-07T13:17:55.235Z,24512.00
2019-04-07T13:18:55.462Z,24576.00
2019-04-07T13:19:57.528Z,24064.00
2019-04-07T13:20:54.820Z,23520.00
2019-04-07T13:21:57.258Z,23264.00
2019-04-07T13:24:28.823Z,22112.00
2019-04-07T13:25:21.078Z,22080.00